KCOF/COF METAR and TAF weather

Enter ICAO airport designator
Station Type Date Time Source
KCOF METAR 2020/01/22 14:59 UTC NOAA

KCOF 221459Z AUTO 31015KT 10SM -RA OVC016 07/06 A3007 RMK AO2 RAB59 CIG 015 RWY21 SLP187 $


Station Type Date Time Source
KCOF Decoded METAR 2020/01/22 14:59 UTC NOAA

Cocoa / Patrick Air Force Base, FL, United States (KCOF) 28-14N 080-36W 3M
Jan 22, 2020 - 09:59 AM EST / 2020.01.22 1459 UTC
Wind: from the NW (310 degrees) at 17 MPH (15 KT):0
Visibility: 10 mile(s):0
Sky conditions: overcast
Weather: light rain
Temperature: 44 F (7 C)
Dew Point: 42 F (6 C)
Relative Humidity: 93%
Pressure (altimeter): 30.07 in. Hg (1018 hPa)
ob: KCOF 221459Z AUTO 31015KT 10SM -RA OVC016 07/06 A3007 RMK AO2 RAB59 CIG 015 RWY21 SLP187
cycle: 15

Station Type Date Time Source
KCOF TAF 2020/01/22 11:06 UTC NOAA

TAF KCOF 221100Z 2211/2317 03020G25KT 9000 SHRA BKN020 QNH3008INS
BECMG 2300/2301 05010G15KT 9999 VCSH SCT030 QNH3003INS
BECMG 2311/2312 08013KT 9999 VCSH SCT030 BKN100 QNH3001INS TX17/2217Z TN14/2310Z

Example: see airport list